Long Lake, Illinois
Current Conditions -  °F | °C
As of 12:31 PM on Monday 22 Dec 2014 (Local Time) from KUGN Reporting Station
Light Snow Light Snow  
Wind Chill: 28°   Ceiling: 3300
Heat Index: 35°   Visibility: 2mi
Dew Point: 32°   Wind: 9mph
Humidity: 89%   Direction: 100°E
Pressure: 29.79"   Gusts: NA
Location:  42.367°N, 88.1557°W
Report Text: KUGN 221831Z 10008KT 2SM -SN BR SCT007 SCT027 OVC033 02/00 A2979 RMK AO2 P0001 T00170000
Loading
Personal Weather Stations






























Interactive Weather Map New forecast layout! Learn more

10-Day Weather Forecast

Advertisements
Track Severe Weather on mobile